createdAt,value
2019-05-06T00:01:34.616Z,6.80
2019-05-06T00:04:04.920Z,9.93
2019-05-06T00:06:34.943Z,9.23
2019-05-06T00:09:06.480Z,6.27
2019-05-06T00:11:36.101Z,7.27
2019-05-06T00:14:05.619Z,7.90
2019-05-06T00:16:35.257Z,7.50
2019-05-06T00:19:05.112Z,7.70
2019-05-06T00:21:35.653Z,17.00
2019-05-06T00:24:05.748Z,9.43
2019-05-06T00:26:45.810Z,11.43
2019-05-06T00:29:17.068Z,11.07
2019-05-06T00:31:46.845Z,12.67
2019-05-06T00:34:16.464Z,9.33
2019-05-06T00:36:46.101Z,11.63
2019-05-06T00:39:29.267Z,10.50
2019-05-06T00:42:17.056Z,10.70
2019-05-06T00:44:46.661Z,20.37
2019-05-06T00:47:16.371Z,13.60
2019-05-06T00:49:46.071Z,8.50
2019-05-06T00:52:15.605Z,10.93
2019-05-06T00:54:45.294Z,10.47
2019-05-06T00:57:14.759Z,10.00
2019-05-06T00:59:44.403Z,14.57
2019-05-06T01:02:14.368Z,14.87
2019-05-06T01:04:44.610Z,13.07
2019-05-06T01:07:14.359Z,7.77
2019-05-06T01:09:44.060Z,9.77
2019-05-06T01:12:14.333Z,9.80
2019-05-06T01:14:45.838Z,12.47
2019-05-06T01:17:15.556Z,12.90
2019-05-06T01:19:45.856Z,14.80
2019-05-06T01:22:16.852Z,11.70
2019-05-06T01:24:46.741Z,12.23
2019-05-06T01:27:16.449Z,13.80
2019-05-06T01:29:46.053Z,11.93
2019-05-06T01:32:15.520Z,14.33
2019-05-06T01:34:45.155Z,12.57
2019-05-06T01:37:14.693Z,12.87
2019-05-06T01:39:48.884Z,10.37
2019-05-06T01:42:34.285Z,9.67
2019-05-06T01:45:04.825Z,14.73
2019-05-06T01:47:34.644Z,9.20
2019-05-06T01:50:06.645Z,13.83
2019-05-06T01:52:36.280Z,9.73
2019-05-06T01:55:09.471Z,11.70
2019-05-06T01:57:39.083Z,10.90
2019-05-06T02:00:10.024Z,12.37
2019-05-06T02:02:39.636Z,14.80
2019-05-06T02:05:09.495Z,10.07
2019-05-06T02:07:39.496Z,15.70
2019-05-06T02:10:09.588Z,13.00
2019-05-06T02:12:39.208Z,11.57
2019-05-06T02:15:08.898Z,12.60
2019-05-06T02:17:38.607Z,12.90
2019-05-06T02:20:09.520Z,11.43
2019-05-06T02:22:44.262Z,12.70
2019-05-06T02:25:19.079Z,12.80
2019-05-06T02:27:48.903Z,12.70
2019-05-06T02:30:36.460Z,12.43
2019-05-06T02:33:24.726Z,11.10
2019-05-06T02:35:56.281Z,12.50
2019-05-06T02:38:39.233Z,14.23
2019-05-06T02:41:03.211Z,12.50
2019-05-06T02:43:34.320Z,10.97
2019-05-06T02:46:04.182Z,13.00
2019-05-06T02:48:50.755Z,13.23
2019-05-06T02:51:24.370Z,9.47
2019-05-06T02:53:53.911Z,15.27
2019-05-06T02:56:24.062Z,12.40
2019-05-06T02:58:54.033Z,8.93
2019-05-06T03:01:23.611Z,9.83
2019-05-06T03:03:53.810Z,13.80
2019-05-06T03:06:24.049Z,12.00
2019-05-06T03:08:54.458Z,12.10
2019-05-06T03:11:24.322Z,11.63
2019-05-06T03:13:54.330Z,11.03
2019-05-06T03:16:24.044Z,11.87
2019-05-06T03:18:53.644Z,10.20
2019-05-06T03:21:44.888Z,11.73
2019-05-06T03:24:19.031Z,10.50
2019-05-06T03:26:53.441Z,12.07
2019-05-06T03:29:25.018Z,11.43
2019-05-06T03:31:56.196Z,16.93
2019-05-06T03:34:48.994Z,15.37
2019-05-06T03:36:57.077Z,11.07
2019-05-06T03:39:27.176Z,11.93
2019-05-06T03:41:56.760Z,13.03
2019-05-06T03:44:26.390Z,9.60
2019-05-06T03:47:14.087Z,10.20
2019-05-06T03:49:50.202Z,10.27
2019-05-06T03:52:23.182Z,10.30
2019-05-06T03:54:53.690Z,8.27
2019-05-06T03:57:25.941Z,10.73
2019-05-06T03:59:55.936Z,10.83
2019-05-06T04:02:25.682Z,10.73
2019-05-06T04:04:56.711Z,12.00
2019-05-06T04:07:27.891Z,11.07
2019-05-06T04:09:57.501Z,11.33
2019-05-06T04:12:32.885Z,13.90
2019-05-06T04:15:03.879Z,9.63
2019-05-06T04:17:54.233Z,11.63
2019-05-06T04:20:34.563Z,12.63
2019-05-06T04:23:13.348Z,11.17
2019-05-06T04:26:03.325Z,10.60
2019-05-06T04:28:34.417Z,7.23
2019-05-06T04:31:05.821Z,11.87
2019-05-06T04:33:35.827Z,10.03
2019-05-06T04:36:05.502Z,9.53
2019-05-06T04:38:35.141Z,6.43
2019-05-06T04:41:04.750Z,9.00
2019-05-06T04:43:34.473Z,11.30
2019-05-06T04:46:04.263Z,7.43
2019-05-06T04:48:34.165Z,9.57
2019-05-06T04:51:03.726Z,8.63
2019-05-06T04:53:33.985Z,7.93
2019-05-06T04:56:04.535Z,7.00
2019-05-06T04:58:34.352Z,6.50
2019-05-06T05:01:04.353Z,8.63
2019-05-06T05:03:34.195Z,7.80
2019-05-06T05:06:05.687Z,8.00
2019-05-06T05:08:38.404Z,8.40
2019-05-06T05:11:12.780Z,17.77
2019-05-06T05:13:44.861Z,10.87
2019-05-06T05:16:16.256Z,6.63
2019-05-06T05:18:50.380Z,14.90
2019-05-06T05:21:20.391Z,7.47
2019-05-06T05:23:52.250Z,12.67
2019-05-06T05:26:22.513Z,8.03
2019-05-06T05:28:53.233Z,6.97
2019-05-06T05:31:23.272Z,8.10
2019-05-06T05:33:53.132Z,7.07
2019-05-06T05:36:23.248Z,11.27
2019-05-06T05:38:53.404Z,11.10
2019-05-06T05:41:23.363Z,8.33
2019-05-06T05:44:02.286Z,8.70
2019-05-06T05:46:32.998Z,8.63
2019-05-06T05:49:07.033Z,7.00
2019-05-06T05:51:36.667Z,13.07
2019-05-06T05:54:06.462Z,7.83
2019-05-06T05:56:36.247Z,9.60
2019-05-06T05:59:05.794Z,13.23
2019-05-06T06:01:35.493Z,8.87
2019-05-06T06:04:05.586Z,15.93
2019-05-06T06:06:35.480Z,9.17
2019-05-06T06:09:07.528Z,12.10
2019-05-06T06:11:54.096Z,9.77
2019-05-06T06:14:28.842Z,9.40
2019-05-06T06:17:01.969Z,8.87
2019-05-06T06:19:33.288Z,14.20
2019-05-06T06:22:04.636Z,8.13
2019-05-06T06:24:35.745Z,6.00
2019-05-06T06:27:05.380Z,11.40
2019-05-06T06:29:35.090Z,8.77
2019-05-06T06:32:09.365Z,8.90
2019-05-06T06:34:44.235Z,6.63
2019-05-06T06:37:33.239Z,6.20
2019-05-06T06:40:05.225Z,7.50
2019-05-06T06:42:34.840Z,8.30
2019-05-06T06:45:05.780Z,10.53
2019-05-06T06:47:35.407Z,10.30
2019-05-06T06:50:05.308Z,7.70
2019-05-06T06:52:34.850Z,9.90
2019-05-06T06:55:06.954Z,10.67
2019-05-06T06:57:42.372Z,6.83
2019-05-06T07:00:17.901Z,9.20
2019-05-06T07:02:50.111Z,6.70
2019-05-06T07:05:28.518Z,10.33
2019-05-06T07:07:57.357Z,7.47
2019-05-06T07:10:37.452Z,7.60
2019-05-06T07:13:07.232Z,6.20
2019-05-06T07:15:36.764Z,7.00
2019-05-06T07:18:06.296Z,7.63
2019-05-06T07:20:37.459Z,7.57
2019-05-06T07:23:23.773Z,6.67
2019-05-06T07:25:54.039Z,6.17
2019-05-06T07:28:24.420Z,7.00
2019-05-06T07:30:54.875Z,7.47
2019-05-06T07:33:24.348Z,5.10
2019-05-06T07:35:54.100Z,7.33
2019-05-06T07:38:23.619Z,6.13
2019-05-06T07:40:55.021Z,7.27
2019-05-06T07:43:26.296Z,9.67
2019-05-06T07:46:13.762Z,7.50
2019-05-06T07:48:43.423Z,8.17
2019-05-06T07:51:12.948Z,11.17
2019-05-06T07:53:42.844Z,6.97
2019-05-06T07:56:12.822Z,7.87
2019-05-06T07:58:43.420Z,6.23
2019-05-06T08:01:14.128Z,8.70
2019-05-06T08:03:43.871Z,6.50
2019-05-06T08:06:13.542Z,6.93
2019-05-06T08:08:43.537Z,7.60
2019-05-06T08:11:13.359Z,6.87
2019-05-06T08:13:43.468Z,13.23
2019-05-06T08:16:13.361Z,7.93
2019-05-06T08:18:43.376Z,12.10
2019-05-06T08:21:14.849Z,5.37
2019-05-06T08:23:45.960Z,5.43
2019-05-06T08:26:17.721Z,8.43
2019-05-06T08:28:46.731Z,5.37
2019-05-06T08:31:17.915Z,6.57
2019-05-06T08:33:47.535Z,6.30
2019-05-06T08:36:18.910Z,5.63
2019-05-06T08:38:59.546Z,5.43
2019-05-06T08:41:29.176Z,5.13
2019-05-06T08:43:59.135Z,6.60
2019-05-06T08:46:28.766Z,8.73
2019-05-06T08:48:58.308Z,5.87
2019-05-06T08:51:47.740Z,4.80
2019-05-06T08:54:25.162Z,7.07
2019-05-06T08:56:54.831Z,10.53
2019-05-06T08:59:24.384Z,11.90
2019-05-06T09:01:55.549Z,4.60
2019-05-06T09:04:25.134Z,8.33
2019-05-06T09:06:54.589Z,7.07
2019-05-06T09:09:24.300Z,6.90
2019-05-06T09:11:53.928Z,6.90
2019-05-06T09:14:24.487Z,4.73
2019-05-06T09:16:54.263Z,4.40
2019-05-06T09:19:24.006Z,4.30
2019-05-06T09:21:53.648Z,5.57
2019-05-06T09:24:23.715Z,4.97
2019-05-06T09:27:02.835Z,4.33
2019-05-06T09:29:36.625Z,6.13
2019-05-06T09:32:17.052Z,9.60
2019-05-06T09:34:52.696Z,5.23
2019-05-06T09:37:23.925Z,9.80
2019-05-06T09:39:54.433Z,6.27
2019-05-06T09:42:24.135Z,3.40
2019-05-06T09:44:54.465Z,6.40
2019-05-06T09:47:43.644Z,4.57
2019-05-06T09:50:15.847Z,3.57
2019-05-06T09:52:45.615Z,10.83
2019-05-06T09:55:17.353Z,5.20
2019-05-06T09:57:54.922Z,4.23
2019-05-06T10:00:26.022Z,4.87
2019-05-06T10:02:55.633Z,4.30
2019-05-06T10:05:25.363Z,3.87
2019-05-06T10:07:55.237Z,5.13
2019-05-06T10:10:24.803Z,5.00
2019-05-06T10:12:54.490Z,4.93
2019-05-06T10:15:24.447Z,6.50
2019-05-06T10:18:12.642Z,7.23
2019-05-06T10:20:43.725Z,4.17
2019-05-06T10:23:14.379Z,5.37
2019-05-06T10:25:44.392Z,4.10
2019-05-06T10:28:34.697Z,3.80
2019-05-06T10:31:06.022Z,8.40
2019-05-06T10:33:37.372Z,5.13
2019-05-06T10:36:07.063Z,3.90
2019-05-06T10:38:54.593Z,3.83
2019-05-06T10:41:27.252Z,4.10
2019-05-06T10:44:05.849Z,4.33
2019-05-06T10:46:35.831Z,3.90
2019-05-06T10:49:05.464Z,4.50
2019-05-06T10:51:36.880Z,4.33
2019-05-06T10:54:06.617Z,4.20
2019-05-06T10:56:49.836Z,4.80
2019-05-06T10:59:13.665Z,3.67
2019-05-06T11:01:45.165Z,5.03
2019-05-06T11:04:14.612Z,5.00
2019-05-06T11:06:44.101Z,4.13
2019-05-06T11:09:13.653Z,4.33
2019-05-06T11:11:43.284Z,4.30
2019-05-06T11:14:13.310Z,3.73
2019-05-06T11:16:42.859Z,3.20
2019-05-06T11:19:13.272Z,4.50
2019-05-06T11:21:45.183Z,3.80
2019-05-06T11:24:14.473Z,5.37
2019-05-06T11:26:44.014Z,8.30
2019-05-06T11:29:21.401Z,4.13
2019-05-06T11:31:57.179Z,6.60
2019-05-06T11:34:34.465Z,5.43
2019-05-06T11:37:17.574Z,4.37
2019-05-06T11:39:47.436Z,4.43
2019-05-06T11:42:27.637Z,3.50
2019-05-06T11:44:48.312Z,5.40
2019-05-06T11:47:18.025Z,3.30
2019-05-06T11:49:49.197Z,3.47
2019-05-06T11:52:18.974Z,4.87
2019-05-06T11:54:48.512Z,3.47
2019-05-06T11:57:18.188Z,4.33
2019-05-06T11:59:47.729Z,7.20
2019-05-06T12:02:22.576Z,4.00
2019-05-06T12:04:52.955Z,4.10
2019-05-06T12:07:24.497Z,3.73
2019-05-06T12:09:54.657Z,3.10
2019-05-06T12:12:24.377Z,3.40
2019-05-06T12:14:53.910Z,3.57
2019-05-06T12:17:24.012Z,7.13
2019-05-06T12:19:53.877Z,4.40
2019-05-06T12:22:25.049Z,4.60
2019-05-06T12:24:54.837Z,3.97
2019-05-06T12:27:43.171Z,3.90
2019-05-06T12:30:17.352Z,4.20
2019-05-06T12:32:54.588Z,4.07
2019-05-06T12:35:24.329Z,6.90
2019-05-06T12:37:55.621Z,5.40
2019-05-06T12:40:25.157Z,5.83
2019-05-06T12:42:56.279Z,18.00
2019-05-06T12:45:32.663Z,6.87
2019-05-06T12:48:03.307Z,5.50
2019-05-06T12:50:33.348Z,3.20
2019-05-06T12:53:03.215Z,3.57
2019-05-06T12:55:33.668Z,4.63
2019-05-06T12:58:03.641Z,5.30
2019-05-06T13:00:34.343Z,5.57
2019-05-06T13:03:04.349Z,11.03
2019-05-06T13:05:34.008Z,5.90
2019-05-06T13:08:05.763Z,4.20
2019-05-06T13:10:34.981Z,3.67
2019-05-06T13:13:04.884Z,4.30
2019-05-06T13:15:34.425Z,5.73
2019-05-06T13:18:07.107Z,2.70
2019-05-06T13:20:36.842Z,4.63
2019-05-06T13:23:24.572Z,5.40
2019-05-06T13:25:52.744Z,11.33
2019-05-06T13:28:24.261Z,5.87
2019-05-06T13:30:53.967Z,4.43
2019-05-06T13:33:25.217Z,11.80
2019-05-06T13:35:54.782Z,6.00
2019-05-06T13:38:24.335Z,3.40
2019-05-06T13:40:57.376Z,6.83
2019-05-06T13:43:26.679Z,4.83
2019-05-06T13:46:02.821Z,3.60
2019-05-06T13:48:50.443Z,9.20
2019-05-06T13:51:32.380Z,11.70
2019-05-06T13:54:02.664Z,6.40
2019-05-06T13:56:33.302Z,5.63
2019-05-06T13:59:05.059Z,10.60
2019-05-06T14:01:43.932Z,10.97
2019-05-06T14:04:15.576Z,8.47
2019-05-06T14:06:45.318Z,6.33
2019-05-06T14:09:28.745Z,6.40
2019-05-06T14:11:46.439Z,7.50
2019-05-06T14:14:16.160Z,6.97
2019-05-06T14:16:45.872Z,14.90
2019-05-06T14:19:16.567Z,17.27
2019-05-06T14:21:46.414Z,11.43
2019-05-06T14:24:17.472Z,13.50
2019-05-06T14:26:59.141Z,11.60
2019-05-06T14:29:33.408Z,13.43
2019-05-06T14:32:03.078Z,8.67
2019-05-06T14:34:32.684Z,8.30
2019-05-06T14:37:02.235Z,4.00
2019-05-06T14:39:48.977Z,4.10
2019-05-06T14:42:04.674Z,4.10
2019-05-06T14:44:34.372Z,4.77
2019-05-06T14:47:08.948Z,3.13
2019-05-06T14:49:38.560Z,4.00
2019-05-06T14:52:08.228Z,3.97
2019-05-06T14:54:39.399Z,4.53
2019-05-06T14:57:13.483Z,4.60
2019-05-06T14:59:42.951Z,3.47
2019-05-06T15:02:13.304Z,5.73
2019-05-06T15:04:43.688Z,3.83
2019-05-06T15:07:13.407Z,4.10
2019-05-06T15:09:55.859Z,6.30
2019-05-06T15:12:14.493Z,6.83
2019-05-06T15:14:44.203Z,5.10
2019-05-06T15:17:14.515Z,5.00
2019-05-06T15:19:44.540Z,5.87
2019-05-06T15:22:14.370Z,5.77
2019-05-06T15:24:43.895Z,6.57
2019-05-06T15:27:13.431Z,6.10
2019-05-06T15:29:48.444Z,8.30
2019-05-06T15:32:23.700Z,6.20
2019-05-06T15:35:02.594Z,5.77
2019-05-06T15:37:39.432Z,6.00
2019-05-06T15:40:09.329Z,5.50
2019-05-06T15:42:38.964Z,6.23
2019-05-06T15:45:08.824Z,5.07
2019-05-06T15:47:38.431Z,6.20
2019-05-06T15:50:08.587Z,5.60
2019-05-06T15:52:38.272Z,5.23
2019-05-06T15:55:07.798Z,6.47
2019-05-06T15:57:37.336Z,7.17
2019-05-06T16:00:07.700Z,5.40
2019-05-06T16:02:37.729Z,7.10
2019-05-06T16:05:14.026Z,6.47
2019-05-06T16:07:39.442Z,9.43
2019-05-06T16:10:09.888Z,6.93
2019-05-06T16:12:41.867Z,5.77
2019-05-06T16:15:12.976Z,5.97
2019-05-06T16:17:42.783Z,7.30
2019-05-06T16:20:13.113Z,8.70
2019-05-06T16:22:44.507Z,9.33
2019-05-06T16:25:17.920Z,8.83
2019-05-06T16:27:52.275Z,6.80
2019-05-06T16:30:24.167Z,6.77
2019-05-06T16:32:52.807Z,6.03
2019-05-06T16:35:23.007Z,6.37
2019-05-06T16:37:52.968Z,6.97
2019-05-06T16:40:23.214Z,7.80
2019-05-06T16:42:54.125Z,6.33
2019-05-06T16:45:23.780Z,7.00
2019-05-06T16:47:53.409Z,7.03
2019-05-06T16:50:29.403Z,6.20
2019-05-06T16:52:57.747Z,7.00
2019-05-06T16:55:29.079Z,7.97
2019-05-06T16:58:02.436Z,6.67
2019-05-06T17:00:33.441Z,6.60
2019-05-06T17:03:16.875Z,6.53
2019-05-06T17:06:06.384Z,6.30
2019-05-06T17:08:36.759Z,7.50
2019-05-06T17:11:06.486Z,5.47
2019-05-06T17:13:37.777Z,8.00
2019-05-06T17:16:07.990Z,5.97
2019-05-06T17:18:37.636Z,4.90
2019-05-06T17:21:07.323Z,4.90
2019-05-06T17:23:36.873Z,4.27
2019-05-06T17:26:06.545Z,5.20
2019-05-06T17:28:52.899Z,6.60
2019-05-06T17:31:31.940Z,5.87
2019-05-06T17:34:05.547Z,5.57
2019-05-06T17:36:36.820Z,5.43
2019-05-06T17:39:10.146Z,6.93
2019-05-06T17:41:47.593Z,6.33
2019-05-06T17:44:12.208Z,6.10
2019-05-06T17:46:59.794Z,5.37
2019-05-06T17:49:33.724Z,5.93
2019-05-06T17:52:05.080Z,6.47
2019-05-06T17:54:35.264Z,5.10
2019-05-06T17:57:05.097Z,5.97
2019-05-06T17:59:37.531Z,6.60
2019-05-06T18:02:10.144Z,6.27
2019-05-06T18:04:39.679Z,6.43
2019-05-06T18:07:09.197Z,6.43
2019-05-06T18:09:38.728Z,5.83
2019-05-06T18:12:08.247Z,5.73
2019-05-06T18:14:37.786Z,6.50
2019-05-06T18:17:07.303Z,7.43
2019-05-06T18:19:37.032Z,7.23
2019-05-06T18:22:06.556Z,7.40
2019-05-06T18:24:36.384Z,7.90
2019-05-06T18:27:06.345Z,7.47
2019-05-06T18:29:36.263Z,6.13
2019-05-06T18:32:05.724Z,6.70
2019-05-06T18:34:35.247Z,5.73
2019-05-06T18:37:05.048Z,7.27
2019-05-06T18:39:34.684Z,8.57
2019-05-06T18:42:15.430Z,7.20
2019-05-06T18:44:35.760Z,7.90
2019-05-06T18:47:05.289Z,7.30
2019-05-06T18:49:34.831Z,7.90
2019-05-06T18:52:04.516Z,8.17
2019-05-06T18:54:34.147Z,7.27
2019-05-06T18:57:05.046Z,7.00
2019-05-06T18:59:36.889Z,6.40
2019-05-06T19:02:06.360Z,7.10
2019-05-06T19:04:41.926Z,8.53
2019-05-06T19:07:16.148Z,8.07
2019-05-06T19:09:52.268Z,7.53
2019-05-06T19:12:30.069Z,6.33
2019-05-06T19:14:52.745Z,7.90
2019-05-06T19:17:22.586Z,9.10
2019-05-06T19:19:52.259Z,9.60
2019-05-06T19:22:22.925Z,9.43
2019-05-06T19:24:52.672Z,11.07
2019-05-06T19:27:24.633Z,10.97
2019-05-06T19:29:54.680Z,13.67
2019-05-06T19:32:25.254Z,12.73
2019-05-06T19:34:54.857Z,11.60
2019-05-06T19:37:24.399Z,15.33
2019-05-06T19:39:54.326Z,15.30
2019-05-06T19:42:23.869Z,12.73
2019-05-06T19:44:53.394Z,15.30
2019-05-06T19:47:23.121Z,14.43
2019-05-06T19:49:53.318Z,18.47
2019-05-06T19:52:24.981Z,17.90
2019-05-06T19:54:54.450Z,19.27
2019-05-06T19:57:24.560Z,17.83
2019-05-06T19:59:54.208Z,18.17
2019-05-06T20:02:25.791Z,18.07
2019-05-06T20:04:59.357Z,18.60
2019-05-06T20:07:30.604Z,18.13
2019-05-06T20:10:03.209Z,24.03
2019-05-06T20:12:34.698Z,26.10
2019-05-06T20:15:24.903Z,23.93
2019-05-06T20:17:54.570Z,15.50
2019-05-06T20:20:24.239Z,13.67
2019-05-06T20:22:54.068Z,9.47
2019-05-06T20:25:23.784Z,9.47
2019-05-06T20:27:53.306Z,8.10
2019-05-06T20:30:23.176Z,11.40
2019-05-06T20:32:53.748Z,9.70
2019-05-06T20:35:23.564Z,8.90
2019-05-06T20:37:53.589Z,8.03
2019-05-06T20:40:23.262Z,9.20
2019-05-06T20:42:52.813Z,9.50
2019-05-06T20:45:22.502Z,9.50
2019-05-06T20:47:52.584Z,8.80
2019-05-06T20:50:22.736Z,9.67
2019-05-06T20:52:52.617Z,8.77
2019-05-06T20:55:23.004Z,9.03
2019-05-06T20:57:53.055Z,9.30
2019-05-06T21:00:23.077Z,8.93
2019-05-06T21:02:53.432Z,10.10
2019-05-06T21:05:23.227Z,9.57
2019-05-06T21:07:52.803Z,9.27
2019-05-06T21:10:22.504Z,9.10
2019-05-06T21:12:53.226Z,9.10
2019-05-06T21:15:23.258Z,8.80
2019-05-06T21:17:52.720Z,9.13
2019-05-06T21:20:23.044Z,11.23
2019-05-06T21:22:52.900Z,10.40
2019-05-06T21:25:22.815Z,10.50
2019-05-06T21:27:53.171Z,9.47
2019-05-06T21:30:23.059Z,11.93
2019-05-06T21:32:52.617Z,11.57
2019-05-06T21:35:22.471Z,10.70
2019-05-06T21:37:52.921Z,11.63
2019-05-06T21:40:23.047Z,10.60
2019-05-06T21:42:52.847Z,12.13
2019-05-06T21:45:22.457Z,12.53
2019-05-06T21:47:52.986Z,11.80
2019-05-06T21:50:22.987Z,12.57
2019-05-06T21:52:52.520Z,11.30
2019-05-06T21:55:22.738Z,12.03
2019-05-06T21:57:53.086Z,11.40
2019-05-06T22:00:24.832Z,12.27
2019-05-06T22:02:54.763Z,13.07
2019-05-06T22:05:24.601Z,11.87
2019-05-06T22:07:54.240Z,13.77
2019-05-06T22:10:25.108Z,13.90
2019-05-06T22:12:54.868Z,12.97
2019-05-06T22:15:24.437Z,13.47
2019-05-06T22:17:54.516Z,13.20
2019-05-06T22:20:24.289Z,11.13
2019-05-06T22:22:53.829Z,12.13
2019-05-06T22:25:23.368Z,14.40
2019-05-06T22:27:52.904Z,13.40
2019-05-06T22:30:23.855Z,13.70
2019-05-06T22:32:53.626Z,13.23
2019-05-06T22:35:23.296Z,12.63
2019-05-06T22:37:53.213Z,13.30
2019-05-06T22:40:23.857Z,15.27
2019-05-06T22:42:53.556Z,16.90
2019-05-06T22:45:23.207Z,15.83
2019-05-06T22:47:55.021Z,16.90
2019-05-06T22:50:24.732Z,18.80
2019-05-06T22:52:54.448Z,16.63
2019-05-06T22:55:24.148Z,18.47
2019-05-06T22:57:53.692Z,15.37
2019-05-06T23:00:26.135Z,16.83
2019-05-06T23:02:57.419Z,19.50
2019-05-06T23:05:27.085Z,17.53
2019-05-06T23:07:56.796Z,16.67
2019-05-06T23:10:26.340Z,16.97
2019-05-06T23:12:55.880Z,18.97
2019-05-06T23:15:25.416Z,20.40
2019-05-06T23:17:55.218Z,17.73
2019-05-06T23:20:24.772Z,20.80
2019-05-06T23:22:54.700Z,18.93
2019-05-06T23:25:24.506Z,20.57
2019-05-06T23:27:54.528Z,18.43
2019-05-06T23:30:24.073Z,18.33
2019-05-06T23:32:53.796Z,22.07
2019-05-06T23:35:23.503Z,20.23
2019-05-06T23:38:33.772Z,18.60
2019-05-06T23:41:37.962Z,22.93
2019-05-06T23:44:46.210Z,23.00
2019-05-06T23:47:53.124Z,25.10
2019-05-06T23:50:59.391Z,23.67
2019-05-06T23:54:05.483Z,29.83
2019-05-06T23:56:43.380Z,27.53
2019-05-06T23:59:15.373Z,23.77
